createdAt,value
2019-03-29T00:00:34.452Z,37.07
2019-03-29T00:03:03.898Z,32.20
2019-03-29T00:05:33.324Z,33.07
2019-03-29T00:08:02.810Z,37.47
2019-03-29T00:10:32.255Z,29.83
2019-03-29T00:13:01.602Z,33.20
2019-03-29T00:15:31.261Z,33.43
2019-03-29T00:18:00.671Z,33.87
2019-03-29T00:20:30.007Z,33.27
2019-03-29T00:22:59.454Z,32.80
2019-03-29T00:25:28.784Z,34.40
2019-03-29T00:27:58.110Z,33.70
2019-03-29T00:30:27.498Z,33.67
2019-03-29T00:32:57.912Z,32.40
2019-03-29T00:35:27.319Z,30.27
2019-03-29T00:37:56.751Z,30.63
2019-03-29T00:40:26.123Z,30.10
2019-03-29T00:42:55.487Z,35.10
2019-03-29T00:45:24.842Z,33.93
2019-03-29T00:47:54.507Z,33.33
2019-03-29T00:50:23.854Z,32.73
2019-03-29T00:52:53.473Z,35.43
2019-03-29T00:55:22.999Z,31.60
2019-03-29T00:57:52.485Z,32.67
2019-03-29T01:00:21.987Z,34.47
2019-03-29T01:02:51.399Z,32.63
2019-03-29T01:05:21.023Z,33.30
2019-03-29T01:07:51.078Z,31.90
2019-03-29T01:10:20.555Z,35.07
2019-03-29T01:12:50.285Z,32.50
2019-03-29T01:15:19.713Z,31.63
2019-03-29T01:17:49.192Z,31.30
2019-03-29T01:20:18.742Z,31.97
2019-03-29T01:22:48.318Z,31.30
2019-03-29T01:25:17.777Z,28.80
2019-03-29T01:27:47.459Z,32.53
2019-03-29T01:30:17.224Z,31.53
2019-03-29T01:32:46.666Z,29.47
2019-03-29T01:35:16.397Z,31.63
2019-03-29T01:37:46.119Z,30.87
2019-03-29T01:40:15.919Z,31.90
2019-03-29T01:42:45.474Z,29.92
2019-03-29T01:45:15.299Z,29.30
2019-03-29T01:47:44.731Z,30.13
2019-03-29T01:50:14.428Z,30.77
2019-03-29T01:52:43.791Z,28.47
2019-03-29T01:55:13.322Z,30.17
2019-03-29T01:57:42.802Z,29.60
2019-03-29T02:00:14.954Z,29.57
2019-03-29T02:02:44.375Z,29.90
2019-03-29T02:05:13.715Z,29.70
2019-03-29T02:07:43.262Z,29.00
2019-03-29T02:10:12.793Z,27.83
2019-03-29T02:12:42.207Z,30.10
2019-03-29T02:15:12.017Z,33.17
2019-03-29T02:17:41.798Z,29.97
2019-03-29T02:20:11.439Z,29.70
2019-03-29T02:22:41.159Z,28.03
2019-03-29T02:25:10.960Z,28.43
2019-03-29T02:27:40.734Z,27.30
2019-03-29T02:30:10.717Z,28.30
2019-03-29T02:32:40.088Z,25.70
2019-03-29T02:35:11.391Z,23.77
2019-03-29T02:37:40.991Z,19.90
2019-03-29T02:40:11.256Z,21.37
2019-03-29T02:42:42.760Z,22.47
2019-03-29T02:45:12.090Z,21.77
2019-03-29T02:47:41.553Z,22.40
2019-03-29T02:50:11.122Z,20.27
2019-03-29T02:52:40.651Z,19.80
2019-03-29T02:55:10.952Z,21.03
2019-03-29T02:57:40.305Z,21.00
2019-03-29T03:00:10.878Z,21.23
2019-03-29T03:02:40.397Z,19.77
2019-03-29T03:05:10.336Z,19.67
2019-03-29T03:07:39.795Z,20.43
2019-03-29T03:10:11.583Z,21.47
2019-03-29T03:12:41.021Z,23.30
2019-03-29T03:15:11.316Z,23.17
2019-03-29T03:17:40.925Z,24.10
2019-03-29T03:20:15.070Z,21.27
2019-03-29T03:22:43.229Z,22.57
2019-03-29T03:25:13.661Z,22.03
2019-03-29T03:27:43.188Z,23.30
2019-03-29T03:30:13.407Z,24.07
2019-03-29T03:32:43.043Z,23.50
2019-03-29T03:35:13.101Z,23.30
2019-03-29T03:37:42.636Z,25.10
2019-03-29T03:40:12.895Z,23.17
2019-03-29T03:42:42.285Z,24.60
2019-03-29T03:45:12.234Z,25.80
2019-03-29T03:47:41.594Z,25.30
2019-03-29T03:50:36.689Z,24.80
2019-03-29T03:53:06.195Z,24.73
2019-03-29T03:55:37.908Z,27.57
2019-03-29T03:58:07.932Z,24.17
2019-03-29T04:00:52.154Z,25.30
2019-03-29T04:03:22.505Z,24.07
2019-03-29T04:05:51.898Z,24.90
2019-03-29T04:08:21.544Z,25.60
2019-03-29T04:10:51.034Z,23.80
2019-03-29T04:13:20.569Z,23.87
2019-03-29T04:15:50.100Z,24.20
2019-03-29T04:18:19.531Z,24.40
2019-03-29T04:20:49.287Z,22.63
2019-03-29T04:23:18.726Z,22.10
2019-03-29T04:25:48.221Z,23.70
2019-03-29T04:28:17.647Z,21.47
2019-03-29T04:30:47.021Z,21.47
2019-03-29T04:33:16.403Z,23.10
2019-03-29T04:35:45.785Z,22.33
2019-03-29T04:38:15.329Z,21.90
2019-03-29T04:40:44.829Z,22.58
2019-03-29T04:43:14.235Z,21.97
2019-03-29T04:45:43.676Z,22.80
2019-03-29T04:48:13.048Z,23.47
2019-03-29T04:50:42.550Z,22.13
2019-03-29T04:53:12.014Z,24.00
2019-03-29T04:55:41.453Z,25.20
2019-03-29T04:58:10.961Z,25.10
2019-03-29T05:00:40.378Z,24.23
2019-03-29T05:03:09.736Z,21.97
2019-03-29T05:05:39.094Z,22.50
2019-03-29T05:08:08.515Z,21.43
2019-03-29T05:10:38.020Z,22.40
2019-03-29T05:13:07.367Z,21.63
2019-03-29T05:15:36.763Z,23.37
2019-03-29T05:18:06.241Z,21.77
2019-03-29T05:20:36.569Z,23.10
2019-03-29T05:23:06.325Z,22.77
2019-03-29T05:25:35.771Z,18.97
2019-03-29T05:28:05.322Z,20.47
2019-03-29T05:30:34.794Z,20.30
2019-03-29T05:33:04.681Z,21.27
2019-03-29T05:35:34.113Z,21.33
2019-03-29T05:38:03.609Z,21.00
2019-03-29T05:40:35.091Z,18.90
2019-03-29T05:43:04.058Z,18.40
2019-03-29T05:45:33.489Z,19.60
2019-03-29T05:48:03.008Z,19.07
2019-03-29T05:50:32.542Z,18.23
2019-03-29T05:53:01.907Z,17.50
2019-03-29T05:55:32.905Z,17.77
2019-03-29T05:58:02.693Z,17.30
2019-03-29T06:00:32.373Z,17.90
2019-03-29T06:03:02.273Z,16.83
2019-03-29T06:05:31.953Z,18.50
2019-03-29T06:08:02.370Z,17.60
2019-03-29T06:10:31.817Z,18.17
2019-03-29T06:13:01.233Z,17.77
2019-03-29T06:15:30.690Z,19.00
2019-03-29T06:18:00.419Z,17.83
2019-03-29T06:20:29.875Z,18.73
2019-03-29T06:22:59.315Z,16.13
2019-03-29T06:25:28.733Z,18.23
2019-03-29T06:27:58.682Z,17.17
2019-03-29T06:30:32.599Z,16.70
2019-03-29T06:33:02.500Z,16.43
2019-03-29T06:35:38.595Z,14.90
2019-03-29T06:38:09.711Z,17.70
2019-03-29T06:40:39.218Z,16.23
2019-03-29T06:43:08.876Z,16.03
2019-03-29T06:45:47.727Z,17.00
2019-03-29T06:48:09.810Z,15.60
2019-03-29T06:50:39.288Z,16.37
2019-03-29T06:53:09.162Z,14.70
2019-03-29T06:55:38.598Z,17.90
2019-03-29T06:58:08.236Z,16.40
2019-03-29T07:00:37.800Z,16.00
2019-03-29T07:03:07.284Z,14.80
2019-03-29T07:05:37.078Z,15.73
2019-03-29T07:08:06.555Z,16.03
2019-03-29T07:10:36.399Z,13.87
2019-03-29T07:13:05.961Z,14.43
2019-03-29T07:15:35.496Z,13.80
2019-03-29T07:18:05.121Z,15.00
2019-03-29T07:20:34.638Z,13.50
2019-03-29T07:23:04.092Z,15.50
2019-03-29T07:25:33.619Z,16.73
2019-03-29T07:28:04.580Z,18.67
2019-03-29T07:30:34.135Z,37.57
2019-03-29T07:33:03.559Z,14.67
2019-03-29T07:35:33.106Z,16.53
2019-03-29T07:38:02.501Z,15.23
2019-03-29T07:40:32.027Z,15.50
2019-03-29T07:43:01.527Z,15.50
2019-03-29T07:45:31.123Z,15.30
2019-03-29T07:48:00.561Z,14.93
2019-03-29T07:50:30.467Z,16.30
2019-03-29T07:52:59.866Z,14.03
2019-03-29T07:55:29.335Z,14.00
2019-03-29T07:57:58.925Z,16.67
2019-03-29T08:00:28.431Z,16.33
2019-03-29T08:02:58.086Z,14.17
2019-03-29T08:05:27.642Z,16.97
2019-03-29T08:07:57.427Z,14.13
2019-03-29T08:10:30.985Z,13.47
2019-03-29T08:12:57.946Z,14.27
2019-03-29T08:15:27.422Z,14.87
2019-03-29T08:17:56.904Z,13.80
2019-03-29T08:20:39.253Z,13.60
2019-03-29T08:22:57.611Z,13.73
2019-03-29T08:25:27.135Z,14.63
2019-03-29T08:27:56.646Z,15.23
2019-03-29T08:30:26.273Z,16.43
2019-03-29T08:32:55.820Z,14.63
2019-03-29T08:35:25.931Z,13.10
2019-03-29T08:37:55.412Z,13.80
2019-03-29T08:40:24.968Z,13.90
2019-03-29T08:42:54.634Z,14.00
2019-03-29T08:45:24.503Z,12.93
2019-03-29T08:47:53.916Z,16.93
2019-03-29T08:50:23.391Z,13.27
2019-03-29T08:52:53.171Z,14.53
2019-03-29T08:55:22.593Z,15.80
2019-03-29T08:57:52.084Z,13.10
2019-03-29T09:00:31.700Z,14.87
2019-03-29T09:03:01.529Z,15.47
2019-03-29T09:05:31.048Z,13.60
2019-03-29T09:08:01.304Z,13.90
2019-03-29T09:10:30.958Z,14.30
2019-03-29T09:13:04.070Z,14.07
2019-03-29T09:15:31.728Z,14.50
2019-03-29T09:18:01.111Z,15.20
2019-03-29T09:20:34.107Z,14.30
2019-03-29T09:23:01.887Z,15.07
2019-03-29T09:25:31.449Z,14.20
2019-03-29T09:28:01.069Z,12.00
2019-03-29T09:30:30.702Z,16.50
2019-03-29T09:33:00.252Z,14.10
2019-03-29T09:35:29.907Z,15.03
2019-03-29T09:37:59.667Z,13.13
2019-03-29T09:40:29.307Z,14.33
2019-03-29T09:43:07.112Z,15.80
2019-03-29T09:45:30.665Z,13.77
2019-03-29T09:48:00.347Z,13.93
2019-03-29T09:50:29.894Z,14.30
2019-03-29T09:53:01.130Z,13.50
2019-03-29T09:55:30.754Z,14.80
2019-03-29T09:58:00.279Z,14.00
2019-03-29T10:00:30.088Z,13.13
2019-03-29T10:02:59.823Z,14.47
2019-03-29T10:05:31.357Z,11.93
2019-03-29T10:08:00.776Z,13.97
2019-03-29T10:10:30.232Z,12.60
2019-03-29T10:12:59.659Z,11.77
2019-03-29T10:15:29.291Z,13.37
2019-03-29T10:17:58.896Z,13.17
2019-03-29T10:20:28.620Z,13.00
2019-03-29T10:22:58.088Z,12.60
2019-03-29T10:25:27.802Z,13.10
2019-03-29T10:27:57.231Z,13.50
2019-03-29T10:30:41.098Z,11.67
2019-03-29T10:33:10.696Z,11.10
2019-03-29T10:35:51.575Z,11.17
2019-03-29T10:38:11.811Z,10.57
2019-03-29T10:40:41.489Z,10.10
2019-03-29T10:43:12.241Z,9.27
2019-03-29T10:45:41.683Z,9.80
2019-03-29T10:48:11.555Z,9.87
2019-03-29T10:50:41.278Z,9.97
2019-03-29T10:53:29.590Z,7.90
2019-03-29T10:55:58.952Z,9.43
2019-03-29T10:58:29.056Z,8.87
2019-03-29T11:00:58.664Z,8.77
2019-03-29T11:03:28.758Z,8.57
2019-03-29T11:05:58.586Z,8.03
2019-03-29T11:08:28.157Z,7.80
2019-03-29T11:10:57.600Z,7.20
2019-03-29T11:13:27.931Z,9.20
2019-03-29T11:15:57.469Z,8.83
2019-03-29T11:18:26.871Z,7.60
2019-03-29T11:20:56.420Z,7.53
2019-03-29T11:23:25.856Z,5.37
2019-03-29T11:25:55.325Z,6.90
2019-03-29T11:28:24.970Z,5.97
2019-03-29T11:30:54.516Z,7.27
2019-03-29T11:33:24.469Z,6.13
2019-03-29T11:35:53.924Z,6.33
2019-03-29T11:38:23.524Z,7.00
2019-03-29T11:40:52.943Z,7.80
2019-03-29T11:43:27.099Z,7.00
2019-03-29T11:45:53.840Z,8.73
2019-03-29T11:48:23.195Z,8.50
2019-03-29T11:50:52.718Z,8.70
2019-03-29T11:53:22.252Z,8.77
2019-03-29T11:55:51.755Z,7.30
2019-03-29T11:58:21.307Z,8.10
2019-03-29T12:00:50.787Z,8.13
2019-03-29T12:03:20.232Z,12.50
2019-03-29T12:05:49.733Z,8.63
2019-03-29T12:08:19.222Z,8.73
2019-03-29T12:10:48.711Z,8.33
2019-03-29T12:13:18.199Z,8.47
2019-03-29T12:15:47.719Z,7.23
2019-03-29T12:18:17.223Z,6.57
2019-03-29T12:20:46.844Z,6.60
2019-03-29T12:23:16.271Z,7.70
2019-03-29T12:25:45.778Z,6.60
2019-03-29T12:28:15.180Z,4.03
2019-03-29T12:30:45.386Z,3.80
2019-03-29T12:33:14.808Z,3.60
2019-03-29T12:35:44.314Z,3.87
2019-03-29T12:38:13.808Z,3.67
2019-03-29T12:40:45.222Z,3.80
2019-03-29T12:43:14.822Z,3.53
2019-03-29T12:45:44.377Z,4.30
2019-03-29T12:48:13.916Z,5.47
2019-03-29T12:50:43.915Z,5.97
2019-03-29T12:53:13.372Z,4.70
2019-03-29T12:55:43.608Z,4.20
2019-03-29T12:58:13.041Z,4.83
2019-03-29T13:00:42.474Z,5.40
2019-03-29T13:03:12.292Z,3.27
2019-03-29T13:05:41.894Z,3.63
2019-03-29T13:08:11.343Z,4.10
2019-03-29T13:10:42.751Z,6.10
2019-03-29T13:13:12.781Z,5.27
2019-03-29T13:15:42.235Z,4.37
2019-03-29T13:18:11.839Z,5.37
2019-03-29T13:20:41.729Z,5.90
2019-03-29T13:23:11.166Z,4.17
2019-03-29T13:25:40.999Z,5.00
2019-03-29T13:28:10.746Z,4.17
2019-03-29T13:30:41.088Z,5.10
2019-03-29T13:33:10.591Z,5.00
2019-03-29T13:35:40.047Z,4.43
2019-03-29T13:38:09.565Z,4.27
2019-03-29T13:40:38.911Z,4.27
2019-03-29T13:43:08.405Z,4.30
2019-03-29T13:45:37.887Z,4.60
2019-03-29T13:48:08.236Z,6.77
2019-03-29T13:50:37.659Z,4.53
2019-03-29T13:53:07.008Z,5.17
2019-03-29T13:55:37.200Z,5.87
2019-03-29T13:58:06.901Z,5.63
2019-03-29T14:00:36.679Z,5.10
2019-03-29T14:03:06.141Z,4.80
2019-03-29T14:05:35.569Z,4.80
2019-03-29T14:08:05.189Z,4.60
2019-03-29T14:10:34.931Z,4.17
2019-03-29T14:13:04.368Z,8.37
2019-03-29T14:15:34.342Z,6.30
2019-03-29T14:18:03.706Z,4.17
2019-03-29T14:20:34.631Z,5.40
2019-03-29T14:23:04.787Z,3.97
2019-03-29T14:25:34.383Z,3.40
2019-03-29T14:28:04.207Z,4.87
2019-03-29T14:30:34.029Z,4.83
2019-03-29T14:33:03.466Z,4.80
2019-03-29T14:35:32.955Z,4.30
2019-03-29T14:38:02.499Z,4.93
2019-03-29T14:40:31.961Z,5.37
2019-03-29T14:43:01.450Z,4.80
2019-03-29T14:45:31.072Z,5.03
2019-03-29T14:48:00.405Z,5.40
2019-03-29T14:50:30.368Z,5.23
2019-03-29T14:52:59.959Z,4.33
2019-03-29T14:55:29.446Z,3.33
2019-03-29T14:58:00.253Z,4.90
2019-03-29T15:00:38.513Z,4.40
2019-03-29T15:03:08.860Z,4.40
2019-03-29T15:05:38.476Z,4.03
2019-03-29T15:08:08.153Z,4.00
2019-03-29T15:10:37.876Z,5.67
2019-03-29T15:13:07.406Z,3.43
2019-03-29T15:15:36.875Z,3.50
2019-03-29T15:18:06.715Z,4.97
2019-03-29T15:20:36.130Z,3.70
2019-03-29T15:23:05.637Z,3.40
2019-03-29T15:25:40.842Z,3.40
2019-03-29T15:28:10.548Z,3.87
2019-03-29T15:30:40.034Z,4.10
2019-03-29T15:33:09.704Z,3.50
2019-03-29T15:35:39.168Z,4.80
2019-03-29T15:38:08.664Z,3.73
2019-03-29T15:40:38.233Z,4.00
2019-03-29T15:43:07.597Z,4.27
2019-03-29T15:45:37.268Z,4.20
2019-03-29T15:48:06.907Z,3.30
2019-03-29T15:50:36.522Z,3.87
2019-03-29T15:53:06.283Z,3.77
2019-03-29T15:55:35.844Z,3.00
2019-03-29T15:58:05.539Z,3.87
2019-03-29T16:00:35.092Z,3.50
2019-03-29T16:03:05.039Z,4.87
2019-03-29T16:05:34.615Z,3.40
2019-03-29T16:08:04.100Z,3.10
2019-03-29T16:10:34.916Z,3.13
2019-03-29T16:13:04.435Z,3.30
2019-03-29T16:15:38.083Z,3.13
2019-03-29T16:18:05.462Z,3.90
2019-03-29T16:20:35.091Z,3.70
2019-03-29T16:23:04.888Z,3.00
2019-03-29T16:25:34.805Z,3.73
2019-03-29T16:28:05.171Z,2.70
2019-03-29T16:30:34.790Z,2.73
2019-03-29T16:33:04.279Z,3.70
2019-03-29T16:35:34.384Z,3.33
2019-03-29T16:38:03.867Z,2.90
2019-03-29T16:40:33.953Z,3.07
2019-03-29T16:43:03.369Z,3.60
2019-03-29T16:45:33.048Z,2.20
2019-03-29T16:48:06.639Z,2.60
2019-03-29T16:50:36.172Z,2.67
2019-03-29T16:53:05.771Z,4.03
2019-03-29T16:55:35.216Z,2.80
2019-03-29T16:58:05.164Z,3.90
2019-03-29T17:00:34.732Z,3.23
2019-03-29T17:03:04.167Z,2.60
2019-03-29T17:05:33.686Z,2.27
2019-03-29T17:08:05.221Z,2.33
2019-03-29T17:10:34.808Z,2.70
2019-03-29T17:13:04.396Z,3.70
2019-03-29T17:15:34.088Z,2.63
2019-03-29T17:18:03.500Z,2.23
2019-03-29T17:20:33.131Z,2.60
2019-03-29T17:23:02.591Z,5.13
2019-03-29T17:25:32.098Z,4.97
2019-03-29T17:28:01.535Z,2.30
2019-03-29T17:30:40.885Z,4.43
2019-03-29T17:33:10.667Z,4.53
2019-03-29T17:35:40.162Z,3.17
2019-03-29T17:38:09.662Z,3.00
2019-03-29T17:40:39.254Z,3.07
2019-03-29T17:43:09.331Z,2.60
2019-03-29T17:45:38.851Z,3.80
2019-03-29T17:48:08.432Z,2.50
2019-03-29T17:50:37.797Z,3.30
2019-03-29T17:53:07.212Z,3.60
2019-03-29T17:55:36.771Z,2.47
2019-03-29T17:58:06.297Z,3.10
2019-03-29T18:00:35.853Z,4.50
2019-03-29T18:03:05.511Z,3.03
2019-03-29T18:05:34.977Z,3.20
2019-03-29T18:08:04.594Z,3.10
2019-03-29T18:10:34.123Z,3.17
2019-03-29T18:13:04.210Z,3.80
2019-03-29T18:15:33.704Z,4.60
2019-03-29T18:18:03.145Z,3.63
2019-03-29T18:20:32.836Z,3.00
2019-03-29T18:23:02.360Z,4.37
2019-03-29T18:25:31.865Z,3.77
2019-03-29T18:28:01.367Z,3.20
2019-03-29T18:30:49.077Z,3.10
2019-03-29T18:33:19.666Z,3.43
2019-03-29T18:35:49.046Z,3.47
2019-03-29T18:38:18.591Z,3.03
2019-03-29T18:40:48.035Z,2.63
2019-03-29T18:43:17.630Z,2.80
2019-03-29T18:45:47.119Z,3.10
2019-03-29T18:48:16.716Z,3.40
2019-03-29T18:50:46.261Z,4.30
2019-03-29T18:53:15.702Z,3.40
2019-03-29T18:55:45.390Z,4.47
2019-03-29T18:58:14.914Z,5.47
2019-03-29T19:00:44.399Z,3.60
2019-03-29T19:03:14.265Z,4.17
2019-03-29T19:05:43.811Z,3.80
2019-03-29T19:08:13.259Z,4.07
2019-03-29T19:10:42.706Z,7.37
2019-03-29T19:13:12.175Z,5.53
2019-03-29T19:15:41.604Z,4.70
2019-03-29T19:18:11.410Z,5.00
2019-03-29T19:20:40.756Z,3.30
2019-03-29T19:23:10.145Z,6.03
2019-03-29T19:25:39.603Z,4.67
2019-03-29T19:28:09.512Z,5.03
2019-03-29T19:30:38.853Z,4.17
2019-03-29T19:33:08.311Z,4.40
2019-03-29T19:35:37.770Z,3.40
2019-03-29T19:38:07.519Z,5.87
2019-03-29T19:40:36.948Z,3.53
2019-03-29T19:43:06.431Z,4.43
2019-03-29T19:45:35.968Z,4.33
2019-03-29T19:48:05.633Z,3.60
2019-03-29T19:50:35.054Z,4.30
2019-03-29T19:53:04.468Z,4.27
2019-03-29T19:55:34.060Z,4.57
2019-03-29T19:58:03.782Z,4.60
2019-03-29T20:00:38.383Z,4.40
2019-03-29T20:03:08.023Z,4.50
2019-03-29T20:05:37.510Z,5.20
2019-03-29T20:08:07.129Z,4.40
2019-03-29T20:10:36.732Z,3.93
2019-03-29T20:13:06.241Z,4.67
2019-03-29T20:15:36.110Z,4.50
2019-03-29T20:18:05.700Z,4.07
2019-03-29T20:20:35.144Z,5.90
2019-03-29T20:23:04.654Z,4.90
2019-03-29T20:25:34.191Z,4.60
2019-03-29T20:28:03.872Z,4.80
2019-03-29T20:30:33.772Z,6.20
2019-03-29T20:33:03.130Z,5.77
2019-03-29T20:35:32.570Z,4.53
2019-03-29T20:38:02.013Z,4.50
2019-03-29T20:40:32.213Z,7.83
2019-03-29T20:43:02.320Z,4.97
2019-03-29T20:45:31.856Z,4.53
2019-03-29T20:48:01.351Z,4.53
2019-03-29T20:50:30.686Z,6.17
2019-03-29T20:53:00.071Z,5.97
2019-03-29T20:55:29.627Z,5.83
2019-03-29T20:57:59.031Z,6.27
2019-03-29T21:00:28.639Z,6.30
2019-03-29T21:02:58.835Z,5.73
2019-03-29T21:05:28.404Z,9.00
2019-03-29T21:07:57.910Z,8.40
2019-03-29T21:10:27.750Z,5.53
2019-03-29T21:12:57.551Z,6.10
2019-03-29T21:15:27.008Z,5.30
2019-03-29T21:17:58.006Z,4.50
2019-03-29T21:20:27.604Z,7.50
2019-03-29T21:22:57.051Z,8.20
2019-03-29T21:25:26.411Z,6.17
2019-03-29T21:27:55.807Z,8.20
2019-03-29T21:30:25.262Z,7.53
2019-03-29T21:32:54.656Z,8.83
2019-03-29T21:35:24.367Z,6.03
2019-03-29T21:37:53.804Z,6.60
2019-03-29T21:40:23.330Z,8.27
2019-03-29T21:42:52.882Z,7.17
2019-03-29T21:45:28.620Z,6.30
2019-03-29T21:48:02.275Z,6.30
2019-03-29T21:50:24.876Z,5.67
2019-03-29T21:52:54.252Z,5.97
2019-03-29T21:55:23.883Z,5.53
2019-03-29T21:57:53.615Z,7.10
2019-03-29T22:00:23.041Z,6.50
2019-03-29T22:02:52.578Z,7.70
2019-03-29T22:05:22.058Z,7.67
2019-03-29T22:07:51.763Z,11.03
2019-03-29T22:10:21.375Z,7.63
2019-03-29T22:12:51.143Z,11.67
2019-03-29T22:15:20.564Z,8.70
2019-03-29T22:17:50.140Z,11.17
2019-03-29T22:20:19.585Z,11.63
2019-03-29T22:22:49.260Z,13.33
2019-03-29T22:25:19.049Z,8.33
2019-03-29T22:27:48.539Z,9.83
2019-03-29T22:30:18.201Z,8.37
2019-03-29T22:32:47.830Z,8.07
2019-03-29T22:35:17.236Z,5.60
2019-03-29T22:37:46.638Z,6.90
2019-03-29T22:40:16.175Z,7.00
2019-03-29T22:42:46.368Z,7.00
2019-03-29T22:45:16.252Z,7.53
2019-03-29T22:47:45.705Z,5.10
2019-03-29T22:50:15.274Z,5.73
2019-03-29T22:52:44.634Z,6.50
2019-03-29T22:55:14.404Z,5.70
2019-03-29T22:57:43.733Z,6.13
2019-03-29T23:00:22.523Z,6.40
2019-03-29T23:02:51.970Z,6.93
2019-03-29T23:05:22.038Z,5.03
2019-03-29T23:07:51.674Z,5.10
2019-03-29T23:10:21.120Z,6.33
2019-03-29T23:12:50.462Z,5.47
2019-03-29T23:15:20.207Z,4.83
2019-03-29T23:17:49.898Z,5.17
2019-03-29T23:20:19.318Z,5.70
2019-03-29T23:22:49.083Z,6.33
2019-03-29T23:25:18.461Z,4.80
2019-03-29T23:27:47.900Z,5.07
2019-03-29T23:30:17.518Z,6.07
2019-03-29T23:32:47.280Z,6.07
2019-03-29T23:35:16.859Z,5.93
2019-03-29T23:37:46.399Z,5.90
2019-03-29T23:40:15.899Z,6.27
2019-03-29T23:42:45.308Z,5.70
2019-03-29T23:45:14.798Z,6.07
2019-03-29T23:47:44.203Z,6.20
2019-03-29T23:50:13.748Z,7.23
2019-03-29T23:52:43.085Z,6.53
2019-03-29T23:55:12.564Z,7.90
2019-03-29T23:57:42.016Z,6.93
